sensor_id;sensor_type;location;lat;lon;timestamp;temperature;humidity
41168;DHT22;26906;45.658;9.272;2023-07-16T05:36:28;30.20;99.90
41168;DHT22;26906;45.658;9.272;2023-07-16T05:38:54;30.50;99.90
41168;DHT22;26906;45.658;9.272;2023-07-16T05:41:20;30.80;99.90
41168;DHT22;26906;45.658;9.272;2023-07-16T05:43:46;31.00;99.90
41168;DHT22;26906;45.658;9.272;2023-07-16T05:46:11;31.20;99.90
41168;DHT22;26906;45.658;9.272;2023-07-16T05:48:37;31.30;99.90
41168;DHT22;26906;45.658;9.272;2023-07-16T05:51:03;31.40;99.90
41168;DHT22;26906;45.658;9.272;2023-07-16T05:53:28;31.60;99.90
41168;DHT22;26906;45.658;9.272;2023-07-16T05:55:54;31.80;99.90
41168;DHT22;26906;45.658;9.272;2023-07-16T05:58:20;32.00;99.90
41168;DHT22;26906;45.658;9.272;2023-07-16T06:00:45;32.20;99.90
41168;DHT22;26906;45.658;9.272;2023-07-16T06:03:11;32.40;99.90
41168;DHT22;26906;45.658;9.272;2023-07-16T06:05:37;32.40;99.90
41168;DHT22;26906;45.658;9.272;2023-07-16T06:08:02;32.50;99.90
41168;DHT22;26906;45.658;9.272;2023-07-16T06:10:28;32.60;99.90
41168;DHT22;26906;45.658;9.272;2023-07-16T06:12:54;32.70;99.90
41168;DHT22;26906;45.658;9.272;2023-07-16T06:15:20;32.80;99.90
41168;DHT22;26906;45.658;9.272;2023-07-16T06:17:45;32.90;99.90
41168;DHT22;26906;45.658;9.272;2023-07-16T06:20:11;32.90;99.90
41168;DHT22;26906;45.658;9.272;2023-07-16T06:22:37;33.00;99.90
41168;DHT22;26906;45.658;9.272;2023-07-16T06:25:03;33.00;99.90
41168;DHT22;26906;45.658;9.272;2023-07-16T06:27:30;33.10;99.90
41168;DHT22;26906;45.658;9.272;2023-07-16T06:29:55;33.30;99.90
41168;DHT22;26906;45.658;9.272;2023-07-16T06:32:21;33.30;99.90
41168;DHT22;26906;45.658;9.272;2023-07-16T06:34:47;33.30;99.90
41168;DHT22;26906;45.658;9.272;2023-07-16T06:37:12;33.40;99.90
41168;DHT22;26906;45.658;9.272;2023-07-16T06:39:38;33.60;99.90
41168;DHT22;26906;45.658;9.272;2023-07-16T06:42:04;33.60;99.90
41168;DHT22;26906;45.658;9.272;2023-07-16T06:44:30;33.90;99.90
41168;DHT22;26906;45.658;9.272;2023-07-16T06:46:55;34.10;99.90
41168;DHT22;26906;45.658;9.272;2023-07-16T06:49:23;34.20;99.90
41168;DHT22;26906;45.658;9.272;2023-07-16T06:51:48;34.00;99.90
41168;DHT22;26906;45.658;9.272;2023-07-16T06:54:14;33.80;99.90
41168;DHT22;26906;45.658;9.272;2023-07-16T06:56:40;34.00;99.90
41168;DHT22;26906;45.658;9.272;2023-07-16T06:59:05;34.40;99.90
41168;DHT22;26906;45.658;9.272;2023-07-16T07:01:31;34.60;99.90
41168;DHT22;26906;45.658;9.272;2023-07-16T07:03:57;34.70;99.90
41168;DHT22;26906;45.658;9.272;2023-07-16T07:06:22;34.60;99.90
41168;DHT22;26906;45.658;9.272;2023-07-16T07:08:48;34.60;99.90
41168;DHT22;26906;45.658;9.272;2023-07-16T07:11:14;34.70;99.90
41168;DHT22;26906;45.658;9.272;2023-07-16T07:13:39;34.90;99.90
41168;DHT22;26906;45.658;9.272;2023-07-16T07:16:05;34.90;99.90
41168;DHT22;26906;45.658;9.272;2023-07-16T07:18:31;34.60;99.90
41168;DHT22;26906;45.658;9.272;2023-07-16T07:20:56;34.70;99.90
41168;DHT22;26906;45.658;9.272;2023-07-16T07:23:23;34.90;99.90
41168;DHT22;26906;45.658;9.272;2023-07-16T07:25:52;35.20;99.90
41168;DHT22;26906;45.658;9.272;2023-07-16T07:28:19;35.40;99.90
41168;DHT22;26906;45.658;9.272;2023-07-16T07:30:45;35.30;99.90
41168;DHT22;26906;45.658;9.272;2023-07-16T07:33:11;35.40;99.90
41168;DHT22;26906;45.658;9.272;2023-07-16T07:35:36;35.60;99.90
41168;DHT22;26906;45.658;9.272;2023-07-16T07:38:02;35.70;99.90
41168;DHT22;26906;45.658;9.272;2023-07-16T07:40:28;35.40;99.90
41168;DHT22;26906;45.658;9.272;2023-07-16T07:42:53;35.40;99.90
41168;DHT22;26906;45.658;9.272;2023-07-16T07:45:19;35.30;99.90
41168;DHT22;26906;45.658;9.272;2023-07-16T07:47:45;35.40;99.90
41168;DHT22;26906;45.658;9.272;2023-07-16T07:50:11;35.40;99.90
41168;DHT22;26906;45.658;9.272;2023-07-16T07:52:36;35.30;99.90
41168;DHT22;26906;45.658;9.272;2023-07-16T07:55:03;35.00;99.90
41168;DHT22;26906;45.658;9.272;2023-07-16T07:57:29;34.80;99.90
41168;DHT22;26906;45.658;9.272;2023-07-16T07:59:54;34.60;99.90
41168;DHT22;26906;45.658;9.272;2023-07-16T08:02:22;34.80;99.90
41168;DHT22;26906;45.658;9.272;2023-07-16T08:04:51;35.00;99.90
41168;DHT22;26906;45.658;9.272;2023-07-16T08:07:18;34.90;99.90
41168;DHT22;26906;45.658;9.272;2023-07-16T08:09:43;34.80;99.90
41168;DHT22;26906;45.658;9.272;2023-07-16T08:12:10;34.90;99.90
41168;DHT22;26906;45.658;9.272;2023-07-16T08:14:35;34.90;99.90
41168;DHT22;26906;45.658;9.272;2023-07-16T08:17:01;34.90;99.90
41168;DHT22;26906;45.658;9.272;2023-07-16T08:19:27;35.00;99.90
41168;DHT22;26906;45.658;9.272;2023-07-16T08:21:52;35.00;99.90
41168;DHT22;26906;45.658;9.272;2023-07-16T08:24:18;35.10;99.90
41168;DHT22;26906;45.658;9.272;2023-07-16T08:26:44;35.50;99.90
41168;DHT22;26906;45.658;9.272;2023-07-16T08:29:10;35.80;99.90
41168;DHT22;26906;45.658;9.272;2023-07-16T08:31:35;35.90;99.90
41168;DHT22;26906;45.658;9.272;2023-07-16T08:34:01;35.70;99.90
41168;DHT22;26906;45.658;9.272;2023-07-16T08:36:27;35.40;99.90
41168;DHT22;26906;45.658;9.272;2023-07-16T08:38:52;35.50;99.90
41168;DHT22;26906;45.658;9.272;2023-07-16T08:41:18;35.70;99.90
41168;DHT22;26906;45.658;9.272;2023-07-16T08:43:46;35.80;99.90
41168;DHT22;26906;45.658;9.272;2023-07-16T08:46:16;35.90;99.90
41168;DHT22;26906;45.658;9.272;2023-07-16T08:48:42;35.90;99.90
41168;DHT22;26906;45.658;9.272;2023-07-16T08:51:09;36.00;99.90
41168;DHT22;26906;45.658;9.272;2023-07-16T08:53:35;35.80;99.90
41168;DHT22;26906;45.658;9.272;2023-07-16T08:56:00;35.40;99.90
41168;DHT22;26906;45.658;9.272;2023-07-16T08:58:28;35.70;99.90
41168;DHT22;26906;45.658;9.272;2023-07-16T09:00:55;35.90;99.90
41168;DHT22;26906;45.658;9.272;2023-07-16T09:03:21;36.10;99.90
41168;DHT22;26906;45.658;9.272;2023-07-16T09:05:47;36.10;99.90
41168;DHT22;26906;45.658;9.272;2023-07-16T09:08:14;36.00;99.90
41168;DHT22;26906;45.658;9.272;2023-07-16T09:10:43;35.90;99.90
41168;DHT22;26906;45.658;9.272;2023-07-16T09:13:09;36.10;99.90
41168;DHT22;26906;45.658;9.272;2023-07-16T09:15:35;36.00;99.90
41168;DHT22;26906;45.658;9.272;2023-07-16T09:18:01;35.80;99.90
41168;DHT22;26906;45.658;9.272;2023-07-16T09:20:27;35.90;99.90
41168;DHT22;26906;45.658;9.272;2023-07-16T09:22:56;35.90;99.90
41168;DHT22;26906;45.658;9.272;2023-07-16T09:25:40;35.90;99.90
41168;DHT22;26906;45.658;9.272;2023-07-16T09:28:06;36.20;99.90
41168;DHT22;26906;45.658;9.272;2023-07-16T09:30:33;36.30;99.90
41168;DHT22;26906;45.658;9.272;2023-07-16T09:33:30;36.30;99.90
41168;DHT22;26906;45.658;9.272;2023-07-16T09:35:55;36.10;99.90
41168;DHT22;26906;45.658;9.272;2023-07-16T09:38:20;36.10;99.90
41168;DHT22;26906;45.658;9.272;2023-07-16T09:40:47;36.30;99.90
41168;DHT22;26906;45.658;9.272;2023-07-16T09:43:13;36.30;99.90
41168;DHT22;26906;45.658;9.272;2023-07-16T09:45:40;36.00;99.90
41168;DHT22;26906;45.658;9.272;2023-07-16T09:48:06;36.10;99.90
41168;DHT22;26906;45.658;9.272;2023-07-16T09:50:33;35.80;99.90
41168;DHT22;26906;45.658;9.272;2023-07-16T09:53:00;36.00;99.90
41168;DHT22;26906;45.658;9.272;2023-07-16T09:55:26;35.90;99.90
41168;DHT22;26906;45.658;9.272;2023-07-16T09:57:56;35.80;99.90
41168;DHT22;26906;45.658;9.272;2023-07-16T10:00:23;36.00;99.90
41168;DHT22;26906;45.658;9.272;2023-07-16T10:02:50;36.20;99.90
41168;DHT22;26906;45.658;9.272;2023-07-16T10:05:25;36.20;99.90
41168;DHT22;26906;45.658;9.272;2023-07-16T10:07:53;36.50;99.90
41168;DHT22;26906;45.658;9.272;2023-07-16T10:10:20;36.80;99.90
41168;DHT22;26906;45.658;9.272;2023-07-16T10:13:01;36.80;99.90
41168;DHT22;26906;45.658;9.272;2023-07-16T10:15:28;36.60;99.90
41168;DHT22;26906;45.658;9.272;2023-07-16T10:17:55;36.30;99.90
41168;DHT22;26906;45.658;9.272;2023-07-16T10:20:35;35.90;99.90
41168;DHT22;26906;45.658;9.272;2023-07-16T10:23:15;36.30;99.90
41168;DHT22;26906;45.658;9.272;2023-07-16T10:25:58;36.50;99.90
41168;DHT22;26906;45.658;9.272;2023-07-16T10:28:23;36.60;99.90
41168;DHT22;26906;45.658;9.272;2023-07-16T10:30:50;36.80;99.90
41168;DHT22;26906;45.658;9.272;2023-07-16T10:33:15;37.00;99.90
41168;DHT22;26906;45.658;9.272;2023-07-16T10:35:45;36.80;99.90
41168;DHT22;26906;45.658;9.272;2023-07-16T10:38:11;36.70;99.90
41168;DHT22;26906;45.658;9.272;2023-07-16T10:40:44;36.10;99.90
41168;DHT22;26906;45.658;9.272;2023-07-16T10:43:11;35.40;99.90
41168;DHT22;26906;45.658;9.272;2023-07-16T10:45:37;35.70;99.90
41168;DHT22;26906;45.658;9.272;2023-07-16T10:48:03;36.10;99.90
41168;DHT22;26906;45.658;9.272;2023-07-16T10:50:31;36.40;99.90
41168;DHT22;26906;45.658;9.272;2023-07-16T10:52:57;36.60;99.90
41168;DHT22;26906;45.658;9.272;2023-07-16T10:55:23;36.40;99.90
41168;DHT22;26906;45.658;9.272;2023-07-16T10:57:50;36.40;99.90
41168;DHT22;26906;45.658;9.272;2023-07-16T11:00:17;36.00;99.90
41168;DHT22;26906;45.658;9.272;2023-07-16T11:02:43;35.00;99.90
41168;DHT22;26906;45.658;9.272;2023-07-16T11:05:13;35.10;99.90
41168;DHT22;26906;45.658;9.272;2023-07-16T11:07:43;35.80;99.90
41168;DHT22;26906;45.658;9.272;2023-07-16T11:10:10;36.40;99.90
41168;DHT22;26906;45.658;9.272;2023-07-16T11:12:36;37.10;99.90
41168;DHT22;26906;45.658;9.272;2023-07-16T11:15:02;37.20;99.90
41168;DHT22;26906;45.658;9.272;2023-07-16T11:17:27;36.90;99.90
41168;DHT22;26906;45.658;9.272;2023-07-16T11:19:54;36.70;99.90
41168;DHT22;26906;45.658;9.272;2023-07-16T11:22:24;36.60;99.90
41168;DHT22;26906;45.658;9.272;2023-07-16T11:24:51;36.40;99.90
41168;DHT22;26906;45.658;9.272;2023-07-16T11:27:25;36.20;99.90
41168;DHT22;26906;45.658;9.272;2023-07-16T11:29:55;36.00;99.90
41168;DHT22;26906;45.658;9.272;2023-07-16T11:32:41;35.60;99.90
41168;DHT22;26906;45.658;9.272;2023-07-16T11:35:08;35.90;99.90
41168;DHT22;26906;45.658;9.272;2023-07-16T11:37:35;35.40;99.90
41168;DHT22;26906;45.658;9.272;2023-07-16T11:45:00;35.80;99.90
41168;DHT22;26906;45.658;9.272;2023-07-16T11:47:26;35.30;99.90
41168;DHT22;26906;45.658;9.272;2023-07-16T11:49:53;36.10;99.90
41168;DHT22;26906;45.658;9.272;2023-07-16T11:52:26;36.10;99.90
41168;DHT22;26906;45.658;9.272;2023-07-16T11:54:52;36.10;99.90
41168;DHT22;26906;45.658;9.272;2023-07-16T11:57:17;36.30;99.90
41168;DHT22;26906;45.658;9.272;2023-07-16T11:59:43;36.90;99.90
41168;DHT22;26906;45.658;9.272;2023-07-16T12:02:09;37.20;99.90
41168;DHT22;26906;45.658;9.272;2023-07-16T12:04:35;37.10;99.90
41168;DHT22;26906;45.658;9.272;2023-07-16T12:07:01;36.70;99.90
41168;DHT22;26906;45.658;9.272;2023-07-16T12:09:27;36.90;99.90
41168;DHT22;26906;45.658;9.272;2023-07-16T12:11:52;37.20;99.90
41168;DHT22;26906;45.658;9.272;2023-07-16T12:14:18;37.30;99.90
41168;DHT22;26906;45.658;9.272;2023-07-16T12:16:44;37.30;99.90
41168;DHT22;26906;45.658;9.272;2023-07-16T12:19:10;37.50;99.90
41168;DHT22;26906;45.658;9.272;2023-07-16T12:21:36;37.70;99.90
41168;DHT22;26906;45.658;9.272;2023-07-16T12:24:02;37.90;99.90
41168;DHT22;26906;45.658;9.272;2023-07-16T12:26:28;38.20;99.90
41168;DHT22;26906;45.658;9.272;2023-07-16T12:28:53;38.00;99.90
41168;DHT22;26906;45.658;9.272;2023-07-16T12:31:19;38.20;99.90
41168;DHT22;26906;45.658;9.272;2023-07-16T12:33:48;38.30;99.90
41168;DHT22;26906;45.658;9.272;2023-07-16T12:36:14;37.90;99.90
41168;DHT22;26906;45.658;9.272;2023-07-16T12:38:40;37.70;99.90
41168;DHT22;26906;45.658;9.272;2023-07-16T12:41:07;37.90;99.90
41168;DHT22;26906;45.658;9.272;2023-07-16T12:43:33;37.90;99.90
41168;DHT22;26906;45.658;9.272;2023-07-16T12:46:03;38.00;99.90
41168;DHT22;26906;45.658;9.272;2023-07-16T12:48:32;38.10;99.90
41168;DHT22;26906;45.658;9.272;2023-07-16T12:50:58;37.80;99.90
41168;DHT22;26906;45.658;9.272;2023-07-16T12:53:24;37.30;99.90
41168;DHT22;26906;45.658;9.272;2023-07-16T12:55:50;37.50;99.90
41168;DHT22;26906;45.658;9.272;2023-07-16T12:58:16;37.90;99.90
41168;DHT22;26906;45.658;9.272;2023-07-16T13:00:41;38.10;99.90
41168;DHT22;26906;45.658;9.272;2023-07-16T13:03:07;37.80;99.90
41168;DHT22;26906;45.658;9.272;2023-07-16T13:05:40;37.70;99.90
41168;DHT22;26906;45.658;9.272;2023-07-16T13:08:06;37.80;99.90
41168;DHT22;26906;45.658;9.272;2023-07-16T13:10:31;38.00;99.90
41168;DHT22;26906;45.658;9.272;2023-07-16T13:12:57;38.20;99.90
41168;DHT22;26906;45.658;9.272;2023-07-16T13:15:23;38.30;99.90
41168;DHT22;26906;45.658;9.272;2023-07-16T13:17:49;38.30;99.90
41168;DHT22;26906;45.658;9.272;2023-07-16T13:20:14;38.60;99.90
41168;DHT22;26906;45.658;9.272;2023-07-16T13:22:40;38.50;99.90
41168;DHT22;26906;45.658;9.272;2023-07-16T13:25:06;38.40;99.90
41168;DHT22;26906;45.658;9.272;2023-07-16T13:27:32;38.50;99.90
41168;DHT22;26906;45.658;9.272;2023-07-16T13:29:58;38.10;99.90
41168;DHT22;26906;45.658;9.272;2023-07-16T13:32:23;37.70;99.90
41168;DHT22;26906;45.658;9.272;2023-07-16T13:34:49;37.50;99.90
41168;DHT22;26906;45.658;9.272;2023-07-16T13:37:15;37.90;99.90
41168;DHT22;26906;45.658;9.272;2023-07-16T13:39:41;38.10;99.90
41168;DHT22;26906;45.658;9.272;2023-07-16T13:42:06;38.30;99.90
41168;DHT22;26906;45.658;9.272;2023-07-16T13:44:33;38.70;99.90
41168;DHT22;26906;45.658;9.272;2023-07-16T13:46:59;38.90;99.90
41168;DHT22;26906;45.658;9.272;2023-07-16T13:49:24;39.30;99.90
41168;DHT22;26906;45.658;9.272;2023-07-16T13:51:50;39.40;99.90
41168;DHT22;26906;45.658;9.272;2023-07-16T13:54:16;39.10;99.90
41168;DHT22;26906;45.658;9.272;2023-07-16T13:56:41;39.20;99.90
41168;DHT22;26906;45.658;9.272;2023-07-16T13:59:07;38.60;99.10
41168;DHT22;26906;45.658;9.272;2023-07-16T14:01:33;38.00;99.00
41168;DHT22;26906;45.658;9.272;2023-07-16T14:03:58;38.20;99.90
41168;DHT22;26906;45.658;9.272;2023-07-16T14:06:24;38.50;99.90
41168;DHT22;26906;45.658;9.272;2023-07-16T14:08:50;38.90;99.90
41168;DHT22;26906;45.658;9.272;2023-07-16T14:11:15;38.90;99.00
41168;DHT22;26906;45.658;9.272;2023-07-16T14:13:44;38.30;98.30
41168;DHT22;26906;45.658;9.272;2023-07-16T14:16:09;38.30;98.60
41168;DHT22;26906;45.658;9.272;2023-07-16T14:18:35;38.20;98.40
41168;DHT22;26906;45.658;9.272;2023-07-16T14:21:01;38.20;98.80
41168;DHT22;26906;45.658;9.272;2023-07-16T14:23:28;37.90;98.90
41168;DHT22;26906;45.658;9.272;2023-07-16T14:25:54;38.10;98.70
41168;DHT22;26906;45.658;9.272;2023-07-16T14:28:19;38.30;98.80
41168;DHT22;26906;45.658;9.272;2023-07-16T14:30:45;38.20;98.00
41168;DHT22;26906;45.658;9.272;2023-07-16T14:33:10;38.10;99.00
41168;DHT22;26906;45.658;9.272;2023-07-16T14:35:36;37.60;98.30
41168;DHT22;26906;45.658;9.272;2023-07-16T14:38:02;37.60;98.10
41168;DHT22;26906;45.658;9.272;2023-07-16T14:40:27;37.40;98.80
41168;DHT22;26906;45.658;9.272;2023-07-16T14:42:53;37.40;99.90
41168;DHT22;26906;45.658;9.272;2023-07-16T14:45:19;37.10;99.20
41168;DHT22;26906;45.658;9.272;2023-07-16T14:47:44;37.00;99.40
41168;DHT22;26906;45.658;9.272;2023-07-16T14:50:10;37.10;99.90
41168;DHT22;26906;45.658;9.272;2023-07-16T14:52:36;37.40;99.90
41168;DHT22;26906;45.658;9.272;2023-07-16T14:55:02;37.20;99.90
41168;DHT22;26906;45.658;9.272;2023-07-16T14:57:30;37.30;99.90
41168;DHT22;26906;45.658;9.272;2023-07-16T14:59:55;37.50;99.90
41168;DHT22;26906;45.658;9.272;2023-07-16T15:02:21;37.60;99.90
41168;DHT22;26906;45.658;9.272;2023-07-16T15:04:47;37.60;99.60
41168;DHT22;26906;45.658;9.272;2023-07-16T15:07:13;37.40;99.00
41168;DHT22;26906;45.658;9.272;2023-07-16T15:09:38;37.40;99.90
41168;DHT22;26906;45.658;9.272;2023-07-16T15:12:06;37.60;99.90
41168;DHT22;26906;45.658;9.272;2023-07-16T15:14:31;37.30;99.90
41168;DHT22;26906;45.658;9.272;2023-07-16T15:16:58;37.10;99.90
41168;DHT22;26906;45.658;9.272;2023-07-16T15:19:24;37.50;99.90
41168;DHT22;26906;45.658;9.272;2023-07-16T15:21:49;37.80;99.90
41168;DHT22;26906;45.658;9.272;2023-07-16T15:24:15;37.60;99.90
41168;DHT22;26906;45.658;9.272;2023-07-16T15:26:42;37.10;99.60
41168;DHT22;26906;45.658;9.272;2023-07-16T15:29:07;37.10;99.90
41168;DHT22;26906;45.658;9.272;2023-07-16T15:31:33;37.30;99.90
41168;DHT22;26906;45.658;9.272;2023-07-16T15:33:59;36.90;99.60
41168;DHT22;26906;45.658;9.272;2023-07-16T15:36:25;37.10;99.90
41168;DHT22;26906;45.658;9.272;2023-07-16T15:38:52;36.90;99.90
41168;DHT22;26906;45.658;9.272;2023-07-16T15:41:19;37.00;99.90
41168;DHT22;26906;45.658;9.272;2023-07-16T15:43:53;37.00;99.90
41168;DHT22;26906;45.658;9.272;2023-07-16T15:46:19;37.10;99.90
41168;DHT22;26906;45.658;9.272;2023-07-16T15:48:46;37.00;99.90
41168;DHT22;26906;45.658;9.272;2023-07-16T15:51:12;37.10;99.90
41168;DHT22;26906;45.658;9.272;2023-07-16T15:53:39;37.10;99.90
41168;DHT22;26906;45.658;9.272;2023-07-16T15:56:04;37.40;99.90
41168;DHT22;26906;45.658;9.272;2023-07-16T15:58:30;37.40;99.90
41168;DHT22;26906;45.658;9.272;2023-07-16T16:00:56;37.40;99.90
41168;DHT22;26906;45.658;9.272;2023-07-16T16:03:23;37.40;99.90
41168;DHT22;26906;45.658;9.272;2023-07-16T16:05:49;37.60;99.60
41168;DHT22;26906;45.658;9.272;2023-07-16T16:08:19;37.30;99.90
41168;DHT22;26906;45.658;9.272;2023-07-16T16:10:47;37.20;99.90
41168;DHT22;26906;45.658;9.272;2023-07-16T16:13:19;37.10;99.90
41168;DHT22;26906;45.658;9.272;2023-07-16T16:15:45;37.30;99.90
41168;DHT22;26906;45.658;9.272;2023-07-16T16:18:12;37.20;99.90
41168;DHT22;26906;45.658;9.272;2023-07-16T16:20:42;37.20;99.90
41168;DHT22;26906;45.658;9.272;2023-07-16T16:23:08;37.30;99.90
41168;DHT22;26906;45.658;9.272;2023-07-16T16:25:34;37.10;99.90
41168;DHT22;26906;45.658;9.272;2023-07-16T16:28:01;37.20;99.90
41168;DHT22;26906;45.658;9.272;2023-07-16T16:30:27;37.30;99.90
41168;DHT22;26906;45.658;9.272;2023-07-16T16:32:54;37.00;99.90
41168;DHT22;26906;45.658;9.272;2023-07-16T16:35:24;36.90;99.90
41168;DHT22;26906;45.658;9.272;2023-07-16T16:37:51;36.80;99.80
41168;DHT22;26906;45.658;9.272;2023-07-16T16:40:17;37.10;99.90
41168;DHT22;26906;45.658;9.272;2023-07-16T16:42:43;37.00;99.90
41168;DHT22;26906;45.658;9.272;2023-07-16T16:45:10;36.70;99.90
41168;DHT22;26906;45.658;9.272;2023-07-16T16:47:35;36.80;99.90
41168;DHT22;26906;45.658;9.272;2023-07-16T16:50:02;36.80;99.90
41168;DHT22;26906;45.658;9.272;2023-07-16T16:52:27;36.90;99.90
41168;DHT22;26906;45.658;9.272;2023-07-16T16:54:53;36.60;99.90
41168;DHT22;26906;45.658;9.272;2023-07-16T16:57:19;36.20;99.90
41168;DHT22;26906;45.658;9.272;2023-07-16T16:59:45;36.00;99.90
41168;DHT22;26906;45.658;9.272;2023-07-16T17:02:12;35.80;99.90
41168;DHT22;26906;45.658;9.272;2023-07-16T17:04:38;35.40;99.90
41168;DHT22;26906;45.658;9.272;2023-07-16T17:07:05;35.30;99.90
41168;DHT22;26906;45.658;9.272;2023-07-16T17:09:36;35.50;99.90
41168;DHT22;26906;45.658;9.272;2023-07-16T17:12:02;35.70;99.90
41168;DHT22;26906;45.658;9.272;2023-07-16T17:14:28;35.90;99.90
41168;DHT22;26906;45.658;9.272;2023-07-16T17:16:54;36.00;99.90
41168;DHT22;26906;45.658;9.272;2023-07-16T17:19:19;36.00;99.90
41168;DHT22;26906;45.658;9.272;2023-07-16T17:21:45;36.00;99.90
41168;DHT22;26906;45.658;9.272;2023-07-16T17:24:11;35.70;99.90
41168;DHT22;26906;45.658;9.272;2023-07-16T17:26:41;35.80;99.90
41168;DHT22;26906;45.658;9.272;2023-07-16T17:29:07;35.80;99.90
41168;DHT22;26906;45.658;9.272;2023-07-16T17:31:34;35.70;99.90
41168;DHT22;26906;45.658;9.272;2023-07-16T17:34:00;35.70;99.90
41168;DHT22;26906;45.658;9.272;2023-07-16T17:36:26;35.70;99.90
41168;DHT22;26906;45.658;9.272;2023-07-16T17:38:52;35.70;99.90
41168;DHT22;26906;45.658;9.272;2023-07-16T17:41:17;35.70;99.90
41168;DHT22;26906;45.658;9.272;2023-07-16T17:43:44;35.70;99.90
41168;DHT22;26906;45.658;9.272;2023-07-16T17:46:10;35.50;99.90
41168;DHT22;26906;45.658;9.272;2023-07-16T17:48:36;35.20;99.90
41168;DHT22;26906;45.658;9.272;2023-07-16T17:51:02;35.20;99.90
41168;DHT22;26906;45.658;9.272;2023-07-16T17:53:28;35.00;99.90
41168;DHT22;26906;45.658;9.272;2023-07-16T17:55:54;34.80;99.90
41168;DHT22;26906;45.658;9.272;2023-07-16T17:58:20;34.80;99.90
41168;DHT22;26906;45.658;9.272;2023-07-16T18:00:47;34.70;99.90
41168;DHT22;26906;45.658;9.272;2023-07-16T18:03:13;34.50;99.90
41168;DHT22;26906;45.658;9.272;2023-07-16T18:05:39;34.40;99.90
41168;DHT22;26906;45.658;9.272;2023-07-16T18:08:06;34.40;99.90
41168;DHT22;26906;45.658;9.272;2023-07-16T18:10:32;34.30;99.90
41168;DHT22;26906;45.658;9.272;2023-07-16T18:12:58;34.20;99.90
41168;DHT22;26906;45.658;9.272;2023-07-16T18:15:24;34.20;99.90
41168;DHT22;26906;45.658;9.272;2023-07-16T18:17:50;34.20;99.90
41168;DHT22;26906;45.658;9.272;2023-07-16T18:20:15;34.10;99.90
41168;DHT22;26906;45.658;9.272;2023-07-16T18:22:42;34.00;99.90
41168;DHT22;26906;45.658;9.272;2023-07-16T18:25:08;33.90;99.90
41168;DHT22;26906;45.658;9.272;2023-07-16T18:27:34;33.70;99.90
41168;DHT22;26906;45.658;9.272;2023-07-16T18:30:02;33.50;99.90
41168;DHT22;26906;45.658;9.272;2023-07-16T18:32:30;33.40;99.90
41168;DHT22;26906;45.658;9.272;2023-07-16T18:34:56;33.40;99.90
41168;DHT22;26906;45.658;9.272;2023-07-16T18:37:22;33.30;99.90
41168;DHT22;26906;45.658;9.272;2023-07-16T18:39:54;33.20;99.90
41168;DHT22;26906;45.658;9.272;2023-07-16T18:42:21;33.10;99.90
41168;DHT22;26906;45.658;9.272;2023-07-16T18:44:52;33.10;99.90
41168;DHT22;26906;45.658;9.272;2023-07-16T18:47:23;33.10;99.90
41168;DHT22;26906;45.658;9.272;2023-07-16T18:49:49;32.90;99.90
41168;DHT22;26906;45.658;9.272;2023-07-16T18:52:15;32.90;99.90
41168;DHT22;26906;45.658;9.272;2023-07-16T18:54:41;32.80;99.90
41168;DHT22;26906;45.658;9.272;2023-07-16T18:57:07;32.70;99.90
41168;DHT22;26906;45.658;9.272;2023-07-16T18:59:32;32.70;99.90
41168;DHT22;26906;45.658;9.272;2023-07-16T19:01:58;32.60;99.90
41168;DHT22;26906;45.658;9.272;2023-07-16T19:04:24;32.40;99.90
41168;DHT22;26906;45.658;9.272;2023-07-16T19:06:49;32.30;99.90
41168;DHT22;26906;45.658;9.272;2023-07-16T19:09:16;32.40;99.90
41168;DHT22;26906;45.658;9.272;2023-07-16T19:11:46;32.40;99.90
41168;DHT22;26906;45.658;9.272;2023-07-16T19:14:12;32.20;99.90
41168;DHT22;26906;45.658;9.272;2023-07-16T19:16:38;32.10;99.90
41168;DHT22;26906;45.658;9.272;2023-07-16T19:19:04;32.00;99.90
41168;DHT22;26906;45.658;9.272;2023-07-16T19:21:29;31.90;99.90
41168;DHT22;26906;45.658;9.272;2023-07-16T19:23:55;31.80;99.90
41168;DHT22;26906;45.658;9.272;2023-07-16T19:26:21;31.80;99.90
41168;DHT22;26906;45.658;9.272;2023-07-16T19:28:47;31.70;99.90
41168;DHT22;26906;45.658;9.272;2023-07-16T19:31:13;31.80;99.90
41168;DHT22;26906;45.658;9.272;2023-07-16T19:33:38;31.80;99.90
41168;DHT22;26906;45.658;9.272;2023-07-16T19:36:04;31.70;99.90
41168;DHT22;26906;45.658;9.272;2023-07-16T19:38:30;31.50;99.90
41168;DHT22;26906;45.658;9.272;2023-07-16T19:40:57;31.50;99.90
41168;DHT22;26906;45.658;9.272;2023-07-16T19:43:23;31.60;99.90
41168;DHT22;26906;45.658;9.272;2023-07-16T19:45:59;31.50;99.90
41168;DHT22;26906;45.658;9.272;2023-07-16T19:48:25;31.40;99.90
41168;DHT22;26906;45.658;9.272;2023-07-16T19:50:52;31.40;99.90
41168;DHT22;26906;45.658;9.272;2023-07-16T19:53:19;31.30;99.90
41168;DHT22;26906;45.658;9.272;2023-07-16T19:55:44;31.40;99.90
41168;DHT22;26906;45.658;9.272;2023-07-16T19:58:10;31.60;99.90
41168;DHT22;26906;45.658;9.272;2023-07-16T20:00:36;31.70;99.90
41168;DHT22;26906;45.658;9.272;2023-07-16T20:03:02;31.70;99.90
41168;DHT22;26906;45.658;9.272;2023-07-16T20:05:40;31.70;99.90
41168;DHT22;26906;45.658;9.272;2023-07-16T20:08:08;31.70;99.90
41168;DHT22;26906;45.658;9.272;2023-07-16T20:10:39;31.70;99.90
41168;DHT22;26906;45.658;9.272;2023-07-16T20:13:04;31.70;99.90
41168;DHT22;26906;45.658;9.272;2023-07-16T20:15:30;31.60;99.90
41168;DHT22;26906;45.658;9.272;2023-07-16T20:17:56;31.80;99.90
41168;DHT22;26906;45.658;9.272;2023-07-16T20:20:22;31.80;99.90
41168;DHT22;26906;45.658;9.272;2023-07-16T20:22:48;31.60;99.90
41168;DHT22;26906;45.658;9.272;2023-07-16T20:25:13;31.50;99.90
41168;DHT22;26906;45.658;9.272;2023-07-16T20:27:44;31.50;99.90
41168;DHT22;26906;45.658;9.272;2023-07-16T20:30:10;31.60;99.90
41168;DHT22;26906;45.658;9.272;2023-07-16T20:32:36;31.70;99.90
41168;DHT22;26906;45.658;9.272;2023-07-16T20:35:04;31.60;99.90
41168;DHT22;26906;45.658;9.272;2023-07-16T20:37:33;31.40;99.90
41168;DHT22;26906;45.658;9.272;2023-07-16T20:40:00;31.30;99.90
41168;DHT22;26906;45.658;9.272;2023-07-16T20:42:25;31.30;99.90
41168;DHT22;26906;45.658;9.272;2023-07-16T20:47:45;31.40;99.90
41168;DHT22;26906;45.658;9.272;2023-07-16T20:50:12;31.30;99.90
